Time;durP1;ratioP1;P1;durP2;ratioP2;P2;SDS_P1;SDS_P2;PMS_P1;PMS_P2;Temp;Humidity;BMP_temperature;BMP_pressure;BME280_temperature;BME280_humidity;BME280_pressure;Samples;Min_cycle;Max_cycle;Signal;HPM_P1;HPM_P2
2023/05/22 00:01:28;;;;;;;31.52;21.33;;;17.70;99.90;;;;;;4998812;28;20408;-71
2023/05/22 00:03:54;;;;;;;25.00;20.60;;;17.80;99.90;;;;;;4955212;28;231172;-70
2023/05/22 00:06:22;;;;;;;26.05;20.23;;;17.80;99.90;;;;;;5023305;28;20058;-70
2023/05/22 00:08:48;;;;;;;27.38;22.30;;;17.80;99.90;;;;;;4979063;28;161231;-70
2023/05/22 00:11:14;;;;;;;30.23;23.65;;;17.80;99.90;;;;;;5016483;28;20054;-70
2023/05/22 00:13:40;;;;;;;31.45;23.05;;;17.90;99.90;;;;;;4949941;28;207393;-71
2023/05/22 00:16:06;;;;;;;29.08;22.88;;;17.80;99.90;;;;;;4998167;28;20059;-71
2023/05/22 00:18:32;;;;;;;27.95;22.05;;;17.90;99.90;;;;;;4937700;28;227573;-71
2023/05/22 00:20:59;;;;;;;27.50;21.58;;;17.80;99.90;;;;;;5005312;28;20478;-71
2023/05/22 00:23:27;;;;;;;28.20;22.63;;;17.80;99.90;;;;;;4953959;28;207414;-70
2023/05/22 00:25:53;;;;;;;29.40;23.40;;;17.80;99.90;;;;;;5022513;28;20053;-69
2023/05/22 00:28:19;;;;;;;30.17;22.75;;;17.80;99.90;;;;;;4950844;28;207757;-70
2023/05/22 00:30:45;;;;;;;26.17;21.63;;;17.80;99.90;;;;;;5003088;28;20062;-71
2023/05/22 00:33:11;;;;;;;32.65;25.00;;;17.80;99.90;;;;;;4933624;28;238788;-71
2023/05/22 00:35:37;;;;;;;31.73;23.15;;;17.80;99.90;;;;;;5023272;28;20130;-70
2023/05/22 00:38:05;;;;;;;24.30;20.33;;;17.80;99.90;;;;;;4971596;28;206734;-69
2023/05/22 00:40:31;;;;;;;29.48;23.15;;;17.80;99.90;;;;;;5010644;28;20061;-70
2023/05/22 00:42:58;;;;;;;28.13;23.58;;;17.80;99.90;;;;;;4985490;28;207689;-69
2023/05/22 00:45:24;;;;;;;28.10;21.77;;;17.70;99.90;;;;;;4989174;28;136682;-69
2023/05/22 00:47:51;;;;;;;26.33;22.17;;;17.60;99.90;;;;;;4984108;28;20050;-71
2023/05/22 00:50:19;;;;;;;30.58;23.35;;;17.60;99.90;;;;;;4966121;28;206777;-71
2023/05/22 00:52:45;;;;;;;32.90;25.30;;;17.60;99.90;;;;;;5005647;28;20061;-71
2023/05/22 00:55:13;;;;;;;32.35;25.42;;;17.60;99.90;;;;;;4956584;28;217245;-71
2023/05/22 00:57:40;;;;;;;29.38;23.63;;;17.60;99.90;;;;;;4982401;28;20061;-70
2023/05/22 01:00:12;;;;;;;29.38;23.33;;;17.60;99.90;;;;;;4949689;28;207174;-71
2023/05/22 01:02:38;;;;;;;33.00;24.75;;;17.60;99.90;;;;;;4978587;28;20054;-70
2023/05/22 01:05:06;;;;;;;28.83;22.30;;;17.60;99.90;;;;;;4969324;28;209942;-71
2023/05/22 01:07:36;;;;;;;33.42;25.73;;;17.60;99.90;;;;;;5008940;28;20060;-71
2023/05/22 01:10:04;;;;;;;32.20;25.98;;;17.60;99.90;;;;;;4956956;28;208866;-71
2023/05/22 01:12:47;;;;;;;32.30;24.95;;;17.50;99.90;;;;;;4982909;28;20062;-70
2023/05/22 01:15:16;;;;;;;28.85;24.65;;;17.50;99.90;;;;;;4929988;28;207429;-71
2023/05/22 01:17:54;;;;;;;32.35;26.40;;;17.40;99.90;;;;;;4987399;28;20574;-71
2023/05/22 01:20:32;;;;;;;27.67;23.77;;;17.40;99.90;;;;;;4931160;28;206301;-70
2023/05/22 01:23:13;;;;;;;30.27;25.02;;;17.40;99.90;;;;;;4973552;28;210022;-70
2023/05/22 01:26:07;;;;;;;30.45;23.15;;;17.40;99.90;;;;;;4957463;28;76140;-71
2023/05/22 01:28:52;;;;;;;34.22;25.67;;;17.40;99.90;;;;;;4933576;28;211954;-70
2023/05/22 01:31:26;;;;;;;34.03;26.13;;;17.40;99.90;;;;;;5000836;28;20058;-71
2023/05/22 01:33:55;;;;;;;33.10;26.75;;;17.30;99.90;;;;;;4937924;28;210137;-71
2023/05/22 01:36:27;;;;;;;35.33;26.25;;;17.30;99.90;;;;;;5002213;28;20062;-71
2023/05/22 01:38:54;;;;;;;36.38;28.38;;;17.30;99.90;;;;;;4942923;28;230924;-70
2023/05/22 01:41:21;;;;;;;36.42;28.60;;;17.30;99.90;;;;;;5003159;28;20075;-70
2023/05/22 01:43:47;;;;;;;35.45;27.20;;;17.30;99.90;;;;;;4947060;28;210394;-70
2023/05/22 01:46:13;;;;;;;35.97;26.77;;;17.20;99.90;;;;;;5005134;28;20050;-70
2023/05/22 01:48:39;;;;;;;34.00;27.15;;;17.20;99.90;;;;;;4941703;28;207682;-70
2023/05/22 01:51:16;;;;;;;39.00;26.90;;;17.20;99.90;;;;;;5013857;28;20065;-70
2023/05/22 01:53:50;;;;;;;33.17;28.00;;;17.20;99.90;;;;;;4944901;28;212327;-70
2023/05/22 01:56:29;;;;;;;35.65;28.42;;;17.10;99.90;;;;;;5023759;28;20038;-69
2023/05/22 01:59:13;;;;;;;34.55;29.25;;;17.00;99.90;;;;;;4940462;28;221579;-70
2023/05/22 02:01:41;;;;;;;32.55;25.77;;;17.00;99.90;;;;;;4992179;28;20062;-70
2023/05/22 02:04:09;;;;;;;38.38;28.92;;;17.00;99.90;;;;;;4938359;28;232996;-70
2023/05/22 02:06:37;;;;;;;33.67;27.98;;;17.00;99.90;;;;;;4998445;28;20047;-69
2023/05/22 02:09:04;;;;;;;35.55;28.02;;;17.00;99.90;;;;;;4949245;28;209607;-70
2023/05/22 02:11:32;;;;;;;34.03;27.92;;;17.00;99.90;;;;;;5000640;28;20516;-70
2023/05/22 02:13:59;;;;;;;36.92;29.55;;;17.00;99.90;;;;;;4944683;28;214289;-69
2023/05/22 02:16:27;;;;;;;32.70;28.70;;;17.00;99.90;;;;;;5002357;28;20057;-70
2023/05/22 02:19:04;;;;;;;36.28;29.13;;;17.00;99.90;;;;;;4949275;28;210261;-71
2023/05/22 02:21:34;;;;;;;36.00;28.83;;;16.90;99.90;;;;;;5011124;28;20058;-72
2023/05/22 02:24:01;;;;;;;34.65;29.00;;;16.90;99.90;;;;;;4966608;28;207200;-70
2023/05/22 02:26:30;;;;;;;33.10;26.85;;;16.90;99.90;;;;;;5008737;28;20083;-70
2023/05/22 02:28:56;;;;;;;32.58;26.05;;;16.90;99.90;;;;;;4955268;28;205075;-70
2023/05/22 02:31:22;;;;;;;37.90;28.85;;;16.90;99.90;;;;;;5010219;28;20045;-71
2023/05/22 02:33:48;;;;;;;33.13;28.42;;;16.90;99.90;;;;;;4945994;28;207563;-71
2023/05/22 02:36:14;;;;;;;33.40;26.73;;;16.90;99.90;;;;;;5014463;28;20067;-71
2023/05/22 02:38:40;;;;;;;33.88;28.33;;;16.90;99.90;;;;;;4962611;28;125193;-70
2023/05/22 02:41:07;;;;;;;30.45;24.60;;;16.90;99.90;;;;;;5006366;28;20062;-71
2023/05/22 02:43:33;;;;;;;34.88;27.27;;;16.90;99.90;;;;;;4945457;28;207664;-69
2023/05/22 02:45:59;;;;;;;33.65;26.50;;;16.90;99.90;;;;;;5022649;28;20054;-70
2023/05/22 02:48:27;;;;;;;31.67;26.75;;;16.90;99.90;;;;;;4936676;28;206429;-69
2023/05/22 02:50:54;;;;;;;33.80;28.42;;;16.80;99.90;;;;;;4996079;28;20503;-71
2023/05/22 02:53:23;;;;;;;32.10;27.55;;;16.80;99.90;;;;;;4933463;28;210998;-70
2023/05/22 02:55:49;;;;;;;36.30;28.55;;;16.80;99.90;;;;;;5024384;28;20060;-70
2023/05/22 02:58:16;;;;;;;30.20;26.13;;;16.80;99.90;;;;;;4955112;28;232768;-71
2023/05/22 03:00:42;;;;;;;31.27;24.63;;;16.80;99.90;;;;;;5007372;28;20057;-70
2023/05/22 03:03:09;;;;;;;32.50;27.15;;;16.80;99.90;;;;;;4948963;28;208537;-70
2023/05/22 03:05:35;;;;;;;37.28;28.88;;;16.80;99.90;;;;;;5021270;28;20050;-71
2023/05/22 03:08:01;;;;;;;36.45;29.63;;;16.80;99.90;;;;;;4974370;28;209802;-70
2023/05/22 03:10:27;;;;;;;34.47;27.08;;;16.80;99.90;;;;;;4998176;28;207380;-71
2023/05/22 03:12:54;;;;;;;36.05;28.98;;;16.80;99.90;;;;;;5009352;28;20053;-70
2023/05/22 03:15:20;;;;;;;35.03;28.80;;;16.80;99.90;;;;;;4949873;28;209806;-70
2023/05/22 03:17:46;;;;;;;33.60;26.33;;;16.80;99.90;;;;;;4999439;28;20045;-71
2023/05/22 03:20:15;;;;;;;32.05;26.88;;;16.80;99.90;;;;;;4960260;28;207743;-70
2023/05/22 03:22:43;;;;;;;34.53;27.23;;;16.80;99.90;;;;;;4987268;28;20407;-71
2023/05/22 03:25:09;;;;;;;36.95;29.52;;;16.80;99.90;;;;;;4980850;28;207593;-71
2023/05/22 03:27:37;;;;;;;38.55;30.70;;;16.80;99.90;;;;;;5042138;28;20077;-71
2023/05/22 03:30:03;;;;;;;36.85;29.67;;;16.80;99.90;;;;;;4985187;28;209543;-71
2023/05/22 03:32:29;;;;;;;34.92;29.30;;;16.80;99.90;;;;;;4990684;28;20504;-71
2023/05/22 03:34:55;;;;;;;40.15;29.95;;;16.80;99.90;;;;;;4971424;28;205509;-70
2023/05/22 03:37:21;;;;;;;35.40;30.27;;;16.70;99.90;;;;;;5008729;28;20141;-71
2023/05/22 03:39:47;;;;;;;36.70;29.63;;;16.70;99.90;;;;;;4974825;28;232715;-73
2023/05/22 03:42:15;;;;;;;36.38;29.38;;;16.70;99.90;;;;;;5009851;28;20046;-71
2023/05/22 03:44:41;;;;;;;32.75;28.65;;;16.70;99.90;;;;;;4961852;28;212358;-71
2023/05/22 03:47:07;;;;;;;34.75;29.92;;;16.80;99.90;;;;;;4995621;28;20058;-71
2023/05/22 03:49:33;;;;;;;36.72;29.10;;;16.70;99.90;;;;;;4963295;28;212565;-70
2023/05/22 03:51:59;;;;;;;39.58;29.45;;;16.70;99.90;;;;;;4996240;28;20397;-71
2023/05/22 03:54:25;;;;;;;36.55;30.13;;;16.70;99.90;;;;;;4951375;28;153038;-71
2023/05/22 03:56:51;;;;;;;35.45;29.85;;;16.70;99.90;;;;;;4994916;28;20523;-71
2023/05/22 03:59:17;;;;;;;37.28;29.30;;;16.70;99.90;;;;;;4942792;28;229704;-70
2023/05/22 04:01:45;;;;;;;35.67;30.08;;;16.70;99.90;;;;;;4999130;28;20655;-70
2023/05/22 04:04:15;;;;;;;36.78;29.70;;;16.70;99.90;;;;;;4950139;28;211484;-70
2023/05/22 04:06:44;;;;;;;34.40;29.17;;;16.70;99.90;;;;;;5005896;28;20577;-71
2023/05/22 04:09:11;;;;;;;33.70;27.48;;;16.60;99.90;;;;;;4945331;28;211214;-72
2023/05/22 04:11:41;;;;;;;32.20;27.85;;;16.60;99.90;;;;;;5010538;28;20061;-71
2023/05/22 04:14:08;;;;;;;37.63;28.35;;;16.60;99.90;;;;;;4960452;28;206741;-69
2023/05/22 04:16:34;;;;;;;32.83;28.15;;;16.70;99.90;;;;;;5000879;28;21182;-68
2023/05/22 04:19:02;;;;;;;34.00;28.58;;;16.70;99.90;;;;;;4950304;28;219424;-68
2023/05/22 04:21:34;;;;;;;35.35;28.50;;;16.70;99.90;;;;;;5010185;28;20129;-69
2023/05/22 04:24:05;;;;;;;32.38;27.35;;;16.70;99.90;;;;;;4970800;28;210576;-68
2023/05/22 04:26:32;;;;;;;31.95;28.20;;;16.70;99.90;;;;;;4988034;28;20061;-68
2023/05/22 04:28:58;;;;;;;34.28;29.02;;;16.80;99.90;;;;;;4937300;28;232573;-68
2023/05/22 04:31:24;;;;;;;36.38;29.60;;;16.80;99.90;;;;;;5004936;28;20084;-68
2023/05/22 04:33:50;;;;;;;32.83;27.75;;;16.80;99.90;;;;;;4960958;28;206575;-68
2023/05/22 04:36:16;;;;;;;37.08;28.33;;;16.80;99.90;;;;;;5005145;28;20072;-68
2023/05/22 04:38:43;;;;;;;34.03;28.05;;;16.90;99.90;;;;;;4951875;28;209880;-68
2023/05/22 04:41:13;;;;;;;35.65;28.25;;;16.90;99.90;;;;;;5016615;28;20051;-69
2023/05/22 04:43:39;;;;;;;34.40;28.23;;;16.90;99.90;;;;;;4957442;28;208500;-67
2023/05/22 04:46:07;;;;;;;33.58;27.90;;;16.90;99.90;;;;;;4998316;28;20046;-67
2023/05/22 04:48:35;;;;;;;35.30;28.00;;;16.90;99.90;;;;;;4933762;28;207909;-66
2023/05/22 04:51:03;;;;;;;36.15;28.52;;;16.80;99.90;;;;;;4994736;28;20065;-68
2023/05/22 04:53:29;;;;;;;38.17;29.52;;;16.80;99.90;;;;;;4936828;28;207421;-68
2023/05/22 04:55:56;;;;;;;36.70;29.10;;;16.80;99.90;;;;;;5022648;28;20068;-67
2023/05/22 04:58:22;;;;;;;35.95;29.98;;;16.80;99.90;;;;;;4934287;28;219439;-68
2023/05/22 05:00:51;;;;;;;38.28;30.80;;;16.80;99.90;;;;;;5007362;28;20408;-68
2023/05/22 05:03:17;;;;;;;36.55;31.95;;;16.70;99.90;;;;;;4932378;28;218455;-67
2023/05/22 05:05:43;;;;;;;38.05;31.85;;;16.70;99.90;;;;;;4996950;28;20065;-69
2023/05/22 05:08:09;;;;;;;38.08;32.03;;;16.70;99.90;;;;;;4931243;28;211003;-68
2023/05/22 05:10:35;;;;;;;40.72;31.02;;;16.70;99.90;;;;;;5011385;28;20587;-67
2023/05/22 05:13:02;;;;;;;38.25;31.50;;;16.70;99.90;;;;;;4961812;28;207584;-67
2023/05/22 05:15:28;;;;;;;38.33;31.20;;;16.70;99.90;;;;;;4986239;28;206504;-67
2023/05/22 05:17:54;;;;;;;38.28;31.80;;;16.70;99.90;;;;;;4981335;28;20077;-67
2023/05/22 05:20:21;;;;;;;41.53;32.53;;;16.70;99.90;;;;;;4963450;28;226578;-68
2023/05/22 05:22:47;;;;;;;36.28;31.88;;;16.70;99.90;;;;;;5014760;28;20050;-67
2023/05/22 05:25:13;;;;;;;36.20;31.88;;;16.70;99.90;;;;;;4952777;28;209721;-67
2023/05/22 05:27:39;;;;;;;36.95;32.20;;;16.70;99.90;;;;;;5003234;28;20057;-66
2023/05/22 05:30:06;;;;;;;42.03;32.78;;;16.70;99.90;;;;;;4962519;28;207908;-68
2023/05/22 05:32:32;;;;;;;38.47;30.90;;;16.70;99.90;;;;;;4987875;28;20065;-68
2023/05/22 05:35:01;;;;;;;36.88;29.70;;;16.80;99.90;;;;;;4955210;28;232699;-69
2023/05/22 05:37:27;;;;;;;38.40;31.38;;;16.70;99.90;;;;;;4981887;28;20375;-67
2023/05/22 05:39:53;;;;;;;33.92;28.92;;;16.70;99.90;;;;;;4956153;28;207226;-67
2023/05/22 05:42:19;;;;;;;36.35;30.35;;;16.70;99.90;;;;;;4986851;28;20400;-67
2023/05/22 05:44:45;;;;;;;36.10;27.60;;;16.80;99.90;;;;;;4971353;28;210066;-67
2023/05/22 05:47:12;;;;;;;34.95;28.25;;;16.80;99.90;;;;;;5009130;28;20054;-67
2023/05/22 05:49:38;;;;;;;33.10;28.20;;;16.90;99.90;;;;;;4958396;28;208386;-65
2023/05/22 05:52:05;;;;;;;31.75;26.45;;;16.80;99.90;;;;;;5002665;28;20066;-65
2023/05/22 05:54:31;;;;;;;34.00;26.02;;;16.80;99.90;;;;;;4960099;28;209287;-68
2023/05/22 05:56:57;;;;;;;30.60;24.83;;;16.80;99.90;;;;;;5008596;28;20411;-68
2023/05/22 05:59:23;;;;;;;30.77;24.75;;;16.80;99.90;;;;;;4958863;28;196390;-68
2023/05/22 06:01:49;;;;;;;29.10;23.77;;;16.80;99.90;;;;;;5022946;28;20061;-67
2023/05/22 06:04:15;;;;;;;26.50;22.17;;;16.80;99.90;;;;;;4963310;28;206915;-67
2023/05/22 06:06:43;;;;;;;30.80;23.42;;;16.90;99.90;;;;;;5014770;28;20053;-67
2023/05/22 06:09:09;;;;;;;26.33;22.02;;;16.90;99.90;;;;;;4965545;28;226288;-66
2023/05/22 06:11:36;;;;;;;29.98;22.00;;;16.90;99.90;;;;;;5014029;28;20057;-67
2023/05/22 06:14:05;;;;;;;30.05;22.50;;;16.90;99.90;;;;;;4956125;28;207611;-67
2023/05/22 06:16:31;;;;;;;30.70;21.95;;;17.00;99.90;;;;;;5002230;28;20153;-67
2023/05/22 06:18:58;;;;;;;27.90;21.38;;;17.00;99.90;;;;;;4938709;28;224772;-66
2023/05/22 06:21:25;;;;;;;29.27;21.88;;;17.00;99.90;;;;;;5007714;28;20061;-68
2023/05/22 06:23:54;;;;;;;28.63;21.27;;;17.10;99.90;;;;;;4944596;28;208632;-68
2023/05/22 06:26:22;;;;;;;26.50;20.63;;;17.10;99.90;;;;;;5002030;28;20062;-67
2023/05/22 06:28:49;;;;;;;30.67;19.73;;;17.10;99.90;;;;;;4952591;28;207120;-66
2023/05/22 06:31:15;;;;;;;28.95;21.73;;;17.10;99.90;;;;;;5007826;28;20054;-68
2023/05/22 06:33:41;;;;;;;28.83;20.67;;;17.10;99.90;;;;;;4940224;28;214456;-68
2023/05/22 06:36:08;;;;;;;29.05;21.48;;;17.10;99.90;;;;;;5012432;28;20049;-67
2023/05/22 06:38:34;;;;;;;33.85;20.80;;;17.20;99.90;;;;;;4951394;28;207667;-67
2023/05/22 06:41:00;;;;;;;25.52;20.73;;;17.20;99.90;;;;;;5010400;28;20081;-67
2023/05/22 06:43:26;;;;;;;25.13;20.13;;;17.20;99.90;;;;;;4939765;28;224270;-66
2023/05/22 06:45:52;;;;;;;24.83;19.95;;;17.20;99.90;;;;;;5031254;28;20511;-67
2023/05/22 06:48:18;;;;;;;26.10;20.27;;;17.20;99.90;;;;;;4952359;28;215171;-67
2023/05/22 06:50:44;;;;;;;26.70;19.40;;;17.30;99.90;;;;;;5010074;28;20065;-68
2023/05/22 06:53:10;;;;;;;29.88;18.48;;;17.40;99.90;;;;;;4934991;28;207627;-67
2023/05/22 06:55:37;;;;;;;24.77;18.27;;;17.40;99.90;;;;;;5006929;28;20065;-67
2023/05/22 06:58:03;;;;;;;23.80;18.02;;;17.40;99.90;;;;;;4947557;28;241580;-66
2023/05/22 07:00:29;;;;;;;22.85;17.13;;;17.40;99.90;;;;;;4977368;28;58974;-67
2023/05/22 07:02:55;;;;;;;24.33;17.70;;;17.40;99.90;;;;;;5010826;28;20038;-67
2023/05/22 07:05:21;;;;;;;27.42;17.65;;;17.50;99.90;;;;;;4966655;28;206216;-69
2023/05/22 07:07:48;;;;;;;23.70;16.63;;;17.50;99.90;;;;;;5009266;28;20058;-67
2023/05/22 07:10:14;;;;;;;28.48;16.45;;;17.40;99.90;;;;;;4961017;28;207779;-66
2023/05/22 07:12:40;;;;;;;26.02;16.08;;;17.50;99.90;;;;;;4998564;28;20061;-67
2023/05/22 07:15:10;;;;;;;23.67;15.35;;;17.50;99.90;;;;;;4979530;28;210754;-66
2023/05/22 07:17:37;;;;;;;24.77;14.52;;;17.50;99.90;;;;;;4997496;28;20050;-68
2023/05/22 07:20:04;;;;;;;22.08;14.57;;;17.40;99.90;;;;;;4994609;28;206248;-68
2023/05/22 07:22:30;;;;;;;24.35;14.20;;;17.30;99.90;;;;;;5004963;28;20096;-67
2023/05/22 07:24:56;;;;;;;28.48;14.23;;;17.40;99.90;;;;;;4965409;28;217177;-66
2023/05/22 07:27:22;;;;;;;26.15;12.25;;;17.30;99.90;;;;;;5008961;28;20053;-68
2023/05/22 07:29:48;;;;;;;21.65;12.02;;;17.30;99.90;;;;;;4976505;28;210043;-67
2023/05/22 07:32:14;;;;;;;18.35;10.27;;;17.30;99.90;;;;;;5009193;28;20495;-67
2023/05/22 07:34:41;;;;;;;24.83;10.65;;;17.30;99.90;;;;;;4965380;28;206924;-66
2023/05/22 07:37:11;;;;;;;25.70;10.52;;;17.30;99.90;;;;;;5007956;28;20053;-65
2023/05/22 07:39:37;;;;;;;23.75;10.25;;;17.30;99.90;;;;;;4961721;28;209706;-67
2023/05/22 07:42:03;;;;;;;22.17;9.93;;;17.20;99.90;;;;;;4995721;28;20499;-67
2023/05/22 07:44:30;;;;;;;23.98;10.38;;;17.20;99.90;;;;;;4963160;28;226703;-67
2023/05/22 07:46:56;;;;;;;24.88;10.00;;;17.20;99.90;;;;;;4999957;28;20058;-67
2023/05/22 07:49:26;;;;;;;24.98;10.10;;;17.30;99.90;;;;;;4959906;28;208401;-67
2023/05/22 07:51:52;;;;;;;24.20;9.60;;;17.20;99.90;;;;;;5000131;28;20059;-68
2023/05/22 07:54:19;;;;;;;26.27;9.80;;;17.20;99.90;;;;;;4951994;28;208397;-68
2023/05/22 07:56:45;;;;;;;24.98;9.30;;;17.20;99.90;;;;;;4993767;28;20057;-67
2023/05/22 07:59:11;;;;;;;23.58;9.38;;;17.20;99.90;;;;;;4937032;28;236576;-68
2023/05/22 08:01:38;;;;;;;27.75;9.80;;;17.20;99.90;;;;;;5008589;28;20148;-67
2023/05/22 08:04:04;;;;;;;27.70;9.80;;;17.30;99.90;;;;;;4959500;28;213168;-66
2023/05/22 08:06:30;;;;;;;24.65;9.57;;;17.20;99.90;;;;;;5015346;28;20065;-67
2023/05/22 08:08:58;;;;;;;29.63;9.38;;;17.30;99.90;;;;;;4960687;28;208460;-66
2023/05/22 08:11:25;;;;;;;22.75;8.65;;;17.20;99.90;;;;;;5016352;28;20046;-67
2023/05/22 08:13:51;;;;;;;30.13;9.27;;;17.10;99.90;;;;;;4945240;28;207479;-68
2023/05/22 08:16:17;;;;;;;27.25;9.73;;;17.10;99.90;;;;;;5012397;28;20406;-66
2023/05/22 08:18:43;;;;;;;26.27;9.38;;;17.20;99.90;;;;;;4958539;28;207368;-67
2023/05/22 08:21:09;;;;;;;29.35;9.88;;;17.30;99.90;;;;;;5004618;28;20047;-67
2023/05/22 08:23:37;;;;;;;24.65;9.30;;;17.40;99.90;;;;;;4946351;28;210541;-67
2023/05/22 08:26:05;;;;;;;29.02;9.43;;;17.50;99.90;;;;;;5017565;28;20516;-66
2023/05/22 08:28:31;;;;;;;26.48;9.23;;;17.50;99.90;;;;;;4948251;28;207293;-67
2023/05/22 08:30:57;;;;;;;24.85;9.15;;;17.50;99.90;;;;;;5003132;28;20057;-67
2023/05/22 08:33:23;;;;;;;28.33;9.55;;;17.60;99.90;;;;;;4958780;28;207819;-67
2023/05/22 08:35:49;;;;;;;29.02;9.93;;;17.60;99.90;;;;;;5013204;28;20054;-67
2023/05/22 08:38:16;;;;;;;21.65;9.52;;;17.60;99.90;;;;;;4935569;28;246081;-67
2023/05/22 08:40:46;;;;;;;27.10;9.45;;;17.70;99.90;;;;;;5014856;28;20440;-67
2023/05/22 08:43:12;;;;;;;23.92;9.90;;;17.70;99.90;;;;;;4930763;28;225191;-67
2023/05/22 08:45:41;;;;;;;29.73;10.20;;;17.70;99.90;;;;;;5017130;28;20526;-65
2023/05/22 08:48:11;;;;;;;25.67;9.77;;;17.70;99.90;;;;;;4953958;28;208888;-67
2023/05/22 08:50:42;;;;;;;25.10;9.43;;;17.80;99.90;;;;;;5012484;28;20411;-68
2023/05/22 08:53:12;;;;;;;29.88;9.90;;;17.70;99.90;;;;;;4941990;28;206961;-68
2023/05/22 08:55:38;;;;;;;26.13;9.30;;;17.70;99.90;;;;;;5019438;28;20428;-67
2023/05/22 08:58:05;;;;;;;25.55;9.85;;;17.70;99.90;;;;;;4939922;28;207934;-66
2023/05/22 09:00:32;;;;;;;30.52;10.45;;;17.80;99.90;;;;;;5006487;28;109013;-66
2023/05/22 09:02:58;;;;;;;28.38;9.55;;;17.70;99.90;;;;;;4996606;28;206657;-67
2023/05/22 09:05:25;;;;;;;27.95;9.77;;;17.80;99.90;;;;;;4965892;28;140574;-66
2023/05/22 09:07:53;;;;;;;23.83;9.30;;;17.80;99.90;;;;;;4989497;28;20070;-65
2023/05/22 09:10:19;;;;;;;27.23;9.85;;;18.00;99.90;;;;;;4939813;28;216183;-65
2023/05/22 09:13:10;;;;;;;21.52;9.68;;;18.10;99.90;;;;;;4988812;28;20046;-66
2023/05/22 09:15:37;;;;;;;24.83;10.20;;;18.20;99.90;;;;;;4945573;28;206096;-66
2023/05/22 09:18:04;;;;;;;22.27;9.68;;;18.50;99.90;;;;;;4949646;28;210120;-67
2023/05/22 09:20:35;;;;;;;23.17;9.52;;;18.70;99.90;;;;;;5007551;28;20121;-66
2023/05/22 09:23:09;;;;;;;22.65;9.65;;;19.00;99.90;;;;;;4962630;28;212670;-67
2023/05/22 09:25:35;;;;;;;26.60;9.88;;;18.90;99.90;;;;;;4995275;28;20053;-67
2023/05/22 09:28:01;;;;;;;23.95;10.15;;;18.80;99.90;;;;;;4978779;28;213172;-67
2023/05/22 09:30:27;;;;;;;19.00;9.43;;;18.80;99.90;;;;;;5000439;28;229490;-66
2023/05/22 09:32:54;;;;;;;25.85;10.27;;;18.80;99.90;;;;;;4983999;28;20249;-67
2023/05/22 09:35:20;;;;;;;22.80;9.90;;;19.00;99.90;;;;;;4981750;28;211963;-64
2023/05/22 09:37:48;;;;;;;22.42;9.90;;;19.10;99.90;;;;;;5009238;28;20046;-68
2023/05/22 09:40:15;;;;;;;24.90;9.65;;;19.50;99.90;;;;;;4986145;28;207649;-67
2023/05/22 09:42:44;;;;;;;22.88;9.65;;;19.90;99.90;;;;;;5010445;28;20050;-66
2023/05/22 09:45:11;;;;;;;20.17;9.20;;;20.30;99.90;;;;;;4991040;28;120156;-66
2023/05/22 09:47:38;;;;;;;19.10;9.30;;;20.40;99.90;;;;;;5008876;28;20054;-66
2023/05/22 09:50:06;;;;;;;20.23;9.93;;;20.50;99.90;;;;;;4976301;28;219297;-66
2023/05/22 09:52:36;;;;;;;20.90;9.80;;;20.60;99.90;;;;;;5006768;28;20060;-68
2023/05/22 09:55:06;;;;;;;23.80;10.15;;;20.50;99.90;;;;;;4944010;28;223294;-65
2023/05/22 09:57:43;;;;;;;18.33;9.70;;;20.50;99.90;;;;;;4988418;28;20062;-67
2023/05/22 10:00:14;;;;;;;18.58;9.95;;;20.60;99.90;;;;;;4943122;28;237010;-66
2023/05/22 10:02:49;;;;;;;20.88;10.43;;;20.40;99.90;;;;;;5041880;28;20049;-65
2023/05/22 10:05:21;;;;;;;21.63;10.48;;;20.50;99.90;;;;;;4965618;28;212475;-66
2023/05/22 10:07:54;;;;;;;21.33;10.45;;;20.80;99.90;;;;;;4987900;28;20061;-67
2023/05/22 10:10:23;;;;;;;21.23;10.55;;;21.60;99.90;;;;;;4973651;28;213753;-66
2023/05/22 10:12:51;;;;;;;19.77;9.80;;;22.80;99.90;;;;;;5005424;28;20064;-67
2023/05/22 10:15:18;;;;;;;17.08;9.40;;;23.10;99.90;;;;;;4954421;28;207483;-67
2023/05/22 10:17:46;;;;;;;17.30;9.00;;;23.50;99.90;;;;;;4980042;28;20420;-66
2023/05/22 10:20:13;;;;;;;19.77;10.40;;;23.80;99.90;;;;;;4968856;28;207663;-67
2023/05/22 10:22:40;;;;;;;18.98;9.88;;;24.70;99.90;;;;;;4985795;28;20054;-67
2023/05/22 10:25:07;;;;;;;22.70;9.45;;;25.30;99.90;;;;;;4981819;28;209650;-67
2023/05/22 10:27:33;;;;;;;19.15;9.50;;;25.10;99.90;;;;;;4986204;28;20073;-68
2023/05/22 10:30:27;;;;;;;18.17;9.98;;;25.00;99.90;;;;;;4973240;28;233081;-66
2023/05/22 10:33:08;;;;;;;17.55;9.43;;;25.00;99.70;;;;;;5003660;28;20050;-66
2023/05/22 10:35:39;;;;;;;18.50;9.40;;;24.90;99.90;;;;;;4944877;28;20057;-67
2023/05/22 10:38:18;;;;;;;16.80;9.40;;;24.80;99.90;;;;;;4939890;28;207747;-66
2023/05/22 10:40:45;;;;;;;20.77;10.05;;;24.50;99.90;;;;;;5013057;28;20054;-66
2023/05/22 10:43:11;;;;;;;20.90;9.80;;;24.70;99.90;;;;;;4940833;28;210590;-67
2023/05/22 10:45:38;;;;;;;17.92;9.38;;;24.80;99.90;;;;;;5019408;28;20049;-67
2023/05/22 10:48:10;;;;;;;21.73;10.70;;;24.40;99.90;;;;;;4983234;28;214025;-66
2023/05/22 10:50:37;;;;;;;17.58;9.77;;;24.30;99.90;;;;;;4998651;28;20062;-67
2023/05/22 10:53:26;;;;;;;16.83;10.23;;;24.90;99.50;;;;;;4953576;28;206907;-66
2023/05/22 10:55:55;;;;;;;17.58;9.98;;;25.90;98.90;;;;;;4999442;28;20046;-67
2023/05/22 10:58:28;;;;;;;18.15;10.02;;;26.30;99.60;;;;;;4951261;28;207461;-67
2023/05/22 11:01:16;;;;;;;17.17;9.20;;;26.50;99.10;;;;;;5032688;28;20052;-65
2023/05/22 11:04:08;;;;;;;16.38;9.80;;;26.90;97.60;;;;;;4962525;28;211196;-67
2023/05/22 11:06:44;;;;;;;15.85;9.60;;;27.30;98.20;;;;;;4995225;28;20058;-67
2023/05/22 11:09:16;;;;;;;17.25;9.73;;;27.80;97.40;;;;;;4947426;28;208602;-67
2023/05/22 11:11:42;;;;;;;17.98;9.13;;;27.60;96.20;;;;;;4995102;28;20432;-68
2023/05/22 11:14:11;;;;;;;18.38;8.63;;;27.50;96.70;;;;;;4948797;28;207809;-68
2023/05/22 11:16:38;;;;;;;17.80;8.55;;;27.70;97.40;;;;;;5011546;28;20074;-68
2023/05/22 11:19:09;;;;;;;15.90;9.02;;;28.40;97.20;;;;;;4964644;28;208131;-67
2023/05/22 11:21:41;;;;;;;16.35;8.80;;;28.90;95.90;;;;;;5009842;28;20503;-67
2023/05/22 11:24:08;;;;;;;14.95;8.75;;;29.10;96.10;;;;;;4963392;28;217642;-67
2023/05/22 11:26:34;;;;;;;15.10;8.55;;;29.20;95.80;;;;;;5001995;28;20419;-66
2023/05/22 11:29:01;;;;;;;14.63;8.05;;;29.00;95.20;;;;;;4947991;28;207517;-66
2023/05/22 11:31:28;;;;;;;15.60;8.23;;;28.90;96.00;;;;;;5003830;28;20431;-67
2023/05/22 11:33:54;;;;;;;14.75;7.65;;;29.50;95.60;;;;;;4947153;28;227846;-67
2023/05/22 11:36:22;;;;;;;13.80;7.53;;;29.60;95.30;;;;;;5011122;28;20058;-67
2023/05/22 11:38:48;;;;;;;13.25;7.03;;;30.10;95.00;;;;;;4946807;28;207232;-67
2023/05/22 11:41:14;;;;;;;14.25;6.90;;;30.70;94.20;;;;;;5019511;28;20499;-68
2023/05/22 11:43:43;;;;;;;12.57;6.68;;;30.90;94.50;;;;;;4960800;28;206277;-68
2023/05/22 11:46:11;;;;;;;12.15;6.30;;;31.30;93.80;;;;;;5023100;28;20065;-68
2023/05/22 11:48:40;;;;;;;12.77;6.57;;;31.70;94.10;;;;;;4958275;28;207742;-68
2023/05/22 11:51:09;;;;;;;14.20;6.60;;;32.10;93.40;;;;;;5009271;28;20062;-67
2023/05/22 11:53:35;;;;;;;13.85;6.43;;;32.40;93.20;;;;;;4936327;28;223818;-67
2023/05/22 11:56:03;;;;;;;13.55;6.88;;;32.70;93.00;;;;;;5011155;28;20058;-67
2023/05/22 11:58:30;;;;;;;15.02;6.82;;;32.80;92.40;;;;;;4928047;28;206248;-66
2023/05/22 12:01:01;;;;;;;14.10;6.78;;;32.90;92.20;;;;;;5022945;28;20513;-68
2023/05/22 12:03:29;;;;;;;13.20;6.82;;;32.90;91.50;;;;;;4955669;28;214464;-67
2023/05/22 12:05:56;;;;;;;14.90;6.97;;;33.00;92.00;;;;;;5021777;28;20050;-68
2023/05/22 12:08:23;;;;;;;11.63;6.40;;;33.30;91.60;;;;;;4959526;28;210023;-67
2023/05/22 12:10:50;;;;;;;15.60;7.88;;;33.30;91.50;;;;;;5013561;28;20042;-67
2023/05/22 12:13:24;;;;;;;13.68;6.50;;;33.40;91.10;;;;;;4962612;28;206995;-69
2023/05/22 12:15:53;;;;;;;12.07;6.68;;;33.40;90.90;;;;;;5018039;28;20403;-68
2023/05/22 12:18:19;;;;;;;12.32;6.40;;;33.70;90.80;;;;;;4956997;28;209303;-68
2023/05/22 12:20:46;;;;;;;13.20;6.78;;;33.80;90.90;;;;;;5015236;28;20054;-67
2023/05/22 12:23:23;;;;;;;11.15;6.57;;;33.90;90.50;;;;;;4954409;28;213470;-68
2023/05/22 12:26:08;;;;;;;14.77;7.95;;;33.50;89.30;;;;;;5025310;28;20045;-68
2023/05/22 12:28:37;;;;;;;13.85;7.50;;;33.10;90.20;;;;;;4979130;28;207216;-68
2023/05/22 12:31:06;;;;;;;13.90;7.57;;;33.00;90.30;;;;;;4999541;28;20069;-67